sensor_id;sensor_type;location;lat;lon;timestamp;temperature;humidity
23681;DHT22;62915;50.832;4.462;2022-09-11T00:01:04;18.00;99.90
23681;DHT22;62915;50.832;4.462;2022-09-11T00:03:31;18.00;99.90
23681;DHT22;62915;50.832;4.462;2022-09-11T00:06:06;18.00;99.90
23681;DHT22;62915;50.832;4.462;2022-09-11T00:08:31;18.10;99.90
23681;DHT22;62915;50.832;4.462;2022-09-11T00:11:09;18.00;99.90
23681;DHT22;62915;50.832;4.462;2022-09-11T00:13:36;18.00;99.90
23681;DHT22;62915;50.832;4.462;2022-09-11T00:16:04;18.00;99.90
23681;DHT22;62915;50.832;4.462;2022-09-11T00:18:32;18.00;99.90
23681;DHT22;62915;50.832;4.462;2022-09-11T00:21:03;18.00;99.90
23681;DHT22;62915;50.832;4.462;2022-09-11T00:23:30;18.00;99.90
23681;DHT22;62915;50.832;4.462;2022-09-11T00:26:00;18.00;99.90
23681;DHT22;62915;50.832;4.462;2022-09-11T00:28:26;18.00;99.90
23681;DHT22;62915;50.832;4.462;2022-09-11T00:30:58;18.00;99.90
23681;DHT22;62915;50.832;4.462;2022-09-11T00:33:24;18.00;99.90
23681;DHT22;62915;50.832;4.462;2022-09-11T00:36:01;18.00;99.90
23681;DHT22;62915;50.832;4.462;2022-09-11T00:38:30;18.10;99.90
23681;DHT22;62915;50.832;4.462;2022-09-11T00:40:59;18.10;99.90
23681;DHT22;62915;50.832;4.462;2022-09-11T00:43:27;18.10;99.90
23681;DHT22;62915;50.832;4.462;2022-09-11T00:46:02;18.10;99.90
23681;DHT22;62915;50.832;4.462;2022-09-11T00:48:31;18.20;99.90
23681;DHT22;62915;50.832;4.462;2022-09-11T00:51:00;18.20;99.90
23681;DHT22;62915;50.832;4.462;2022-09-11T00:53:31;18.10;99.90
23681;DHT22;62915;50.832;4.462;2022-09-11T00:55:59;18.10;99.90
23681;DHT22;62915;50.832;4.462;2022-09-11T00:58:30;18.10;99.90
23681;DHT22;62915;50.832;4.462;2022-09-11T01:00:57;18.10;99.90
23681;DHT22;62915;50.832;4.462;2022-09-11T01:03:24;18.10;99.90
23681;DHT22;62915;50.832;4.462;2022-09-11T01:05:51;18.10;99.90
23681;DHT22;62915;50.832;4.462;2022-09-11T01:08:19;18.10;99.90
23681;DHT22;62915;50.832;4.462;2022-09-11T01:14:18;18.10;99.90
23681;DHT22;62915;50.832;4.462;2022-09-11T01:16:55;18.00;99.90
23681;DHT22;62915;50.832;4.462;2022-09-11T01:27:55;17.80;99.90
23681;DHT22;62915;50.832;4.462;2022-09-11T01:30:26;17.80;99.90
23681;DHT22;62915;50.832;4.462;2022-09-11T01:33:17;17.70;99.90
23681;DHT22;62915;50.832;4.462;2022-09-11T01:36:18;17.70;99.90
23681;DHT22;62915;50.832;4.462;2022-09-11T01:38:53;17.70;99.90
23681;DHT22;62915;50.832;4.462;2022-09-11T01:41:31;17.70;99.90
23681;DHT22;62915;50.832;4.462;2022-09-11T01:44:06;17.70;99.90
23681;DHT22;62915;50.832;4.462;2022-09-11T01:46:38;17.70;99.90
23681;DHT22;62915;50.832;4.462;2022-09-11T01:51:56;17.70;99.90
23681;DHT22;62915;50.832;4.462;2022-09-11T01:54:27;17.70;99.90
23681;DHT22;62915;50.832;4.462;2022-09-11T01:57:05;17.60;99.90
23681;DHT22;62915;50.832;4.462;2022-09-11T02:00:04;17.60;99.90
23681;DHT22;62915;50.832;4.462;2022-09-11T02:02:37;17.60;99.90
23681;DHT22;62915;50.832;4.462;2022-09-11T02:07:34;17.50;99.90
23681;DHT22;62915;50.832;4.462;2022-09-11T02:10:11;17.50;99.90
23681;DHT22;62915;50.832;4.462;2022-09-11T02:12:54;17.50;99.90
23681;DHT22;62915;50.832;4.462;2022-09-11T02:15:24;17.40;99.90
23681;DHT22;62915;50.832;4.462;2022-09-11T02:18:01;17.50;99.90
23681;DHT22;62915;50.832;4.462;2022-09-11T02:20:30;17.40;99.90
23681;DHT22;62915;50.832;4.462;2022-09-11T02:22:56;17.50;99.90
23681;DHT22;62915;50.832;4.462;2022-09-11T02:25:22;17.40;99.90
23681;DHT22;62915;50.832;4.462;2022-09-11T02:27:48;17.40;99.90
23681;DHT22;62915;50.832;4.462;2022-09-11T02:30:13;17.40;99.90
23681;DHT22;62915;50.832;4.462;2022-09-11T02:32:41;17.40;99.90
23681;DHT22;62915;50.832;4.462;2022-09-11T02:35:08;17.40;99.90
23681;DHT22;62915;50.832;4.462;2022-09-11T02:57:03;17.30;99.90
23681;DHT22;62915;50.832;4.462;2022-09-11T02:59:37;17.30;99.90
23681;DHT22;62915;50.832;4.462;2022-09-11T03:02:06;17.20;99.90
23681;DHT22;62915;50.832;4.462;2022-09-11T03:04:34;17.10;99.90
23681;DHT22;62915;50.832;4.462;2022-09-11T03:07:00;17.10;99.90
23681;DHT22;62915;50.832;4.462;2022-09-11T03:09:28;17.10;99.90
23681;DHT22;62915;50.832;4.462;2022-09-11T03:11:53;17.10;99.90
23681;DHT22;62915;50.832;4.462;2022-09-11T03:14:19;17.10;99.90
23681;DHT22;62915;50.832;4.462;2022-09-11T03:16:45;17.20;99.90
23681;DHT22;62915;50.832;4.462;2022-09-11T03:19:12;17.10;99.90
23681;DHT22;62915;50.832;4.462;2022-09-11T03:21:38;17.10;99.90
23681;DHT22;62915;50.832;4.462;2022-09-11T03:24:04;17.10;99.90
23681;DHT22;62915;50.832;4.462;2022-09-11T03:26:31;17.10;99.90
23681;DHT22;62915;50.832;4.462;2022-09-11T03:29:00;17.10;99.90
23681;DHT22;62915;50.832;4.462;2022-09-11T03:31:26;17.00;99.90
23681;DHT22;62915;50.832;4.462;2022-09-11T03:33:53;17.00;99.90
23681;DHT22;62915;50.832;4.462;2022-09-11T03:36:19;17.00;99.90
23681;DHT22;62915;50.832;4.462;2022-09-11T03:38:46;16.90;99.90
23681;DHT22;62915;50.832;4.462;2022-09-11T03:41:12;17.00;99.90
23681;DHT22;62915;50.832;4.462;2022-09-11T03:43:38;16.90;99.90
23681;DHT22;62915;50.832;4.462;2022-09-11T03:46:04;16.90;99.90
23681;DHT22;62915;50.832;4.462;2022-09-11T03:48:30;16.90;99.90
23681;DHT22;62915;50.832;4.462;2022-09-11T03:50:56;16.90;99.90
23681;DHT22;62915;50.832;4.462;2022-09-11T03:53:25;16.80;99.90
23681;DHT22;62915;50.832;4.462;2022-09-11T03:55:51;16.90;99.90
23681;DHT22;62915;50.832;4.462;2022-09-11T03:58:17;16.80;99.90
23681;DHT22;62915;50.832;4.462;2022-09-11T04:00:46;16.80;99.90
23681;DHT22;62915;50.832;4.462;2022-09-11T04:03:13;16.80;99.90
23681;DHT22;62915;50.832;4.462;2022-09-11T04:05:43;16.80;99.90
23681;DHT22;62915;50.832;4.462;2022-09-11T04:08:19;16.80;99.90
23681;DHT22;62915;50.832;4.462;2022-09-11T04:10:45;16.80;99.90
23681;DHT22;62915;50.832;4.462;2022-09-11T04:13:10;16.80;99.90
23681;DHT22;62915;50.832;4.462;2022-09-11T04:15:36;16.80;99.90
23681;DHT22;62915;50.832;4.462;2022-09-11T04:18:06;16.80;99.90
23681;DHT22;62915;50.832;4.462;2022-09-11T04:20:32;16.80;99.90
23681;DHT22;62915;50.832;4.462;2022-09-11T04:22:57;16.80;99.90
23681;DHT22;62915;50.832;4.462;2022-09-11T04:25:23;16.80;99.90
23681;DHT22;62915;50.832;4.462;2022-09-11T04:27:49;16.90;99.90
23681;DHT22;62915;50.832;4.462;2022-09-11T04:30:15;16.90;99.90
23681;DHT22;62915;50.832;4.462;2022-09-11T04:32:40;16.80;99.90
23681;DHT22;62915;50.832;4.462;2022-09-11T04:35:06;16.80;99.90
23681;DHT22;62915;50.832;4.462;2022-09-11T04:37:32;16.80;99.90
23681;DHT22;62915;50.832;4.462;2022-09-11T04:40:00;16.70;99.90
23681;DHT22;62915;50.832;4.462;2022-09-11T04:42:25;16.70;99.90
23681;DHT22;62915;50.832;4.462;2022-09-11T04:44:51;16.80;99.90
23681;DHT22;62915;50.832;4.462;2022-09-11T04:47:17;16.80;99.90
23681;DHT22;62915;50.832;4.462;2022-09-11T04:49:43;16.80;99.90
23681;DHT22;62915;50.832;4.462;2022-09-11T04:52:11;16.80;99.90
23681;DHT22;62915;50.832;4.462;2022-09-11T04:54:37;16.80;99.90
23681;DHT22;62915;50.832;4.462;2022-09-11T04:57:03;16.80;99.90
23681;DHT22;62915;50.832;4.462;2022-09-11T04:59:29;16.80;99.90
23681;DHT22;62915;50.832;4.462;2022-09-11T05:01:54;16.80;99.90
23681;DHT22;62915;50.832;4.462;2022-09-11T05:04:20;16.80;99.90
23681;DHT22;62915;50.832;4.462;2022-09-11T05:06:46;16.70;99.90
23681;DHT22;62915;50.832;4.462;2022-09-11T05:09:16;16.70;99.90
23681;DHT22;62915;50.832;4.462;2022-09-11T05:11:42;16.70;99.90
23681;DHT22;62915;50.832;4.462;2022-09-11T05:14:08;16.80;99.90
23681;DHT22;62915;50.832;4.462;2022-09-11T05:16:36;16.80;99.90
23681;DHT22;62915;50.832;4.462;2022-09-11T05:19:02;16.80;99.90
23681;DHT22;62915;50.832;4.462;2022-09-11T05:21:29;16.80;99.90
23681;DHT22;62915;50.832;4.462;2022-09-11T05:23:57;16.80;99.90
23681;DHT22;62915;50.832;4.462;2022-09-11T05:26:29;16.80;99.90
23681;DHT22;62915;50.832;4.462;2022-09-11T05:28:57;16.50;99.90
23681;DHT22;62915;50.832;4.462;2022-09-11T05:31:24;16.40;99.90
23681;DHT22;62915;50.832;4.462;2022-09-11T05:33:50;16.50;99.90
23681;DHT22;62915;50.832;4.462;2022-09-11T05:36:17;16.60;99.90
23681;DHT22;62915;50.832;4.462;2022-09-11T05:38:43;16.70;99.90
23681;DHT22;62915;50.832;4.462;2022-09-11T05:41:11;16.70;99.90
23681;DHT22;62915;50.832;4.462;2022-09-11T05:43:38;16.70;99.90
23681;DHT22;62915;50.832;4.462;2022-09-11T05:46:05;16.70;99.90
23681;DHT22;62915;50.832;4.462;2022-09-11T05:48:32;16.70;99.90
23681;DHT22;62915;50.832;4.462;2022-09-11T05:51:08;16.70;99.90
23681;DHT22;62915;50.832;4.462;2022-09-11T05:53:35;16.70;99.90
23681;DHT22;62915;50.832;4.462;2022-09-11T05:58:32;16.80;99.90
23681;DHT22;62915;50.832;4.462;2022-09-11T06:01:12;16.80;99.90
23681;DHT22;62915;50.832;4.462;2022-09-11T06:03:39;16.90;99.90
23681;DHT22;62915;50.832;4.462;2022-09-11T06:06:07;16.80;99.90
23681;DHT22;62915;50.832;4.462;2022-09-11T06:08:34;16.80;99.90
23681;DHT22;62915;50.832;4.462;2022-09-11T06:11:01;16.80;99.90
23681;DHT22;62915;50.832;4.462;2022-09-11T06:13:29;16.90;99.90
23681;DHT22;62915;50.832;4.462;2022-09-11T06:15:55;16.90;99.90
23681;DHT22;62915;50.832;4.462;2022-09-11T06:18:20;17.00;99.90
23681;DHT22;62915;50.832;4.462;2022-09-11T06:21:04;17.10;99.90
23681;DHT22;62915;50.832;4.462;2022-09-11T06:23:33;17.00;99.90
23681;DHT22;62915;50.832;4.462;2022-09-11T06:26:11;17.00;99.90
23681;DHT22;62915;50.832;4.462;2022-09-11T06:28:37;17.10;99.90
23681;DHT22;62915;50.832;4.462;2022-09-11T06:31:05;17.00;99.90
23681;DHT22;62915;50.832;4.462;2022-09-11T06:33:36;16.90;99.90
23681;DHT22;62915;50.832;4.462;2022-09-11T06:36:04;17.00;99.90
23681;DHT22;62915;50.832;4.462;2022-09-11T06:38:31;17.00;99.90
23681;DHT22;62915;50.832;4.462;2022-09-11T06:40:59;17.10;99.90
23681;DHT22;62915;50.832;4.462;2022-09-11T06:43:27;17.10;99.90
23681;DHT22;62915;50.832;4.462;2022-09-11T06:45:53;17.10;99.90
23681;DHT22;62915;50.832;4.462;2022-09-11T06:48:18;17.10;99.90
23681;DHT22;62915;50.832;4.462;2022-09-11T06:50:44;17.20;99.90
23681;DHT22;62915;50.832;4.462;2022-09-11T06:53:11;17.20;99.90
23681;DHT22;62915;50.832;4.462;2022-09-11T06:55:40;17.30;99.90
23681;DHT22;62915;50.832;4.462;2022-09-11T06:58:06;17.30;99.90
23681;DHT22;62915;50.832;4.462;2022-09-11T07:00:35;17.40;99.90
23681;DHT22;62915;50.832;4.462;2022-09-11T07:03:03;17.40;99.90
23681;DHT22;62915;50.832;4.462;2022-09-11T07:05:29;17.40;99.90
23681;DHT22;62915;50.832;4.462;2022-09-11T07:07:55;17.50;99.90
23681;DHT22;62915;50.832;4.462;2022-09-11T07:10:22;17.50;99.90
23681;DHT22;62915;50.832;4.462;2022-09-11T07:12:48;17.60;99.90
23681;DHT22;62915;50.832;4.462;2022-09-11T07:15:16;17.60;99.90
23681;DHT22;62915;50.832;4.462;2022-09-11T07:17:43;17.70;99.90
23681;DHT22;62915;50.832;4.462;2022-09-11T07:20:09;17.70;99.90
23681;DHT22;62915;50.832;4.462;2022-09-11T07:22:35;17.70;99.90
23681;DHT22;62915;50.832;4.462;2022-09-11T07:25:02;17.80;99.90
23681;DHT22;62915;50.832;4.462;2022-09-11T07:27:28;17.80;99.90
23681;DHT22;62915;50.832;4.462;2022-09-11T07:29:56;17.80;99.90
23681;DHT22;62915;50.832;4.462;2022-09-11T07:32:22;17.90;99.90
23681;DHT22;62915;50.832;4.462;2022-09-11T07:34:48;17.90;99.90
23681;DHT22;62915;50.832;4.462;2022-09-11T07:37:14;18.00;99.90
23681;DHT22;62915;50.832;4.462;2022-09-11T07:39:40;18.00;99.90
23681;DHT22;62915;50.832;4.462;2022-09-11T07:42:06;18.00;99.90
23681;DHT22;62915;50.832;4.462;2022-09-11T07:44:33;18.10;99.90
23681;DHT22;62915;50.832;4.462;2022-09-11T07:46:59;18.00;99.90
23681;DHT22;62915;50.832;4.462;2022-09-11T07:49:25;18.00;99.90
23681;DHT22;62915;50.832;4.462;2022-09-11T07:51:52;18.10;99.90
23681;DHT22;62915;50.832;4.462;2022-09-11T07:54:19;18.10;99.90
23681;DHT22;62915;50.832;4.462;2022-09-11T07:56:45;18.20;99.90
23681;DHT22;62915;50.832;4.462;2022-09-11T07:59:11;18.20;99.90
23681;DHT22;62915;50.832;4.462;2022-09-11T08:01:37;18.30;99.90
23681;DHT22;62915;50.832;4.462;2022-09-11T08:04:05;18.30;99.90
23681;DHT22;62915;50.832;4.462;2022-09-11T08:06:33;18.40;99.90
23681;DHT22;62915;50.832;4.462;2022-09-11T08:09:05;18.40;99.90
23681;DHT22;62915;50.832;4.462;2022-09-11T08:11:34;18.50;99.90
23681;DHT22;62915;50.832;4.462;2022-09-11T08:14:00;18.50;99.90
23681;DHT22;62915;50.832;4.462;2022-09-11T08:16:26;18.60;99.90
23681;DHT22;62915;50.832;4.462;2022-09-11T08:18:53;18.70;99.90
23681;DHT22;62915;50.832;4.462;2022-09-11T08:21:19;18.70;99.90
23681;DHT22;62915;50.832;4.462;2022-09-11T08:23:45;18.80;99.90
23681;DHT22;62915;50.832;4.462;2022-09-11T08:26:19;18.70;99.90
23681;DHT22;62915;50.832;4.462;2022-09-11T08:28:47;18.80;99.90
23681;DHT22;62915;50.832;4.462;2022-09-11T08:31:16;19.00;99.90
23681;DHT22;62915;50.832;4.462;2022-09-11T08:33:42;19.20;99.90
23681;DHT22;62915;50.832;4.462;2022-09-11T08:36:10;19.30;99.90
23681;DHT22;62915;50.832;4.462;2022-09-11T08:38:37;19.50;99.90
23681;DHT22;62915;50.832;4.462;2022-09-11T08:43:51;19.60;99.90
23681;DHT22;62915;50.832;4.462;2022-09-11T08:46:20;19.50;99.90
23681;DHT22;62915;50.832;4.462;2022-09-11T08:49:13;19.50;99.90
23681;DHT22;62915;50.832;4.462;2022-09-11T08:51:40;19.60;99.90
23681;DHT22;62915;50.832;4.462;2022-09-11T08:54:09;19.60;99.90
23681;DHT22;62915;50.832;4.462;2022-09-11T08:56:37;19.60;99.90
23681;DHT22;62915;50.832;4.462;2022-09-11T08:59:39;19.50;99.90
23681;DHT22;62915;50.832;4.462;2022-09-11T09:15:52;19.40;99.90
23681;DHT22;62915;50.832;4.462;2022-09-11T09:18:32;19.50;99.90
23681;DHT22;62915;50.832;4.462;2022-09-11T09:21:28;19.60;99.90
23681;DHT22;62915;50.832;4.462;2022-09-11T09:23:59;19.60;99.90
23681;DHT22;62915;50.832;4.462;2022-09-11T09:26:38;19.60;99.90
23681;DHT22;62915;50.832;4.462;2022-09-11T09:29:08;19.60;99.90
23681;DHT22;62915;50.832;4.462;2022-09-11T09:31:39;19.60;99.90
23681;DHT22;62915;50.832;4.462;2022-09-11T09:34:11;19.60;99.90
23681;DHT22;62915;50.832;4.462;2022-09-11T09:37:20;19.70;99.90
23681;DHT22;62915;50.832;4.462;2022-09-11T09:39:38;19.80;99.90
23681;DHT22;62915;50.832;4.462;2022-09-11T09:42:14;19.80;99.90
23681;DHT22;62915;50.832;4.462;2022-09-11T09:47:16;20.00;99.90
23681;DHT22;62915;50.832;4.462;2022-09-11T09:49:42;20.30;99.90
23681;DHT22;62915;50.832;4.462;2022-09-11T09:52:21;20.60;99.90
23681;DHT22;62915;50.832;4.462;2022-09-11T09:55:03;21.00;99.90
23681;DHT22;62915;50.832;4.462;2022-09-11T09:57:35;21.50;99.90
23681;DHT22;62915;50.832;4.462;2022-09-11T10:00:16;21.90;99.90
23681;DHT22;62915;50.832;4.462;2022-09-11T10:02:45;22.30;99.90
23681;DHT22;62915;50.832;4.462;2022-09-11T10:05:23;22.50;99.90
23681;DHT22;62915;50.832;4.462;2022-09-11T10:10:34;23.10;99.90
23681;DHT22;62915;50.832;4.462;2022-09-11T10:13:19;23.40;99.90
23681;DHT22;62915;50.832;4.462;2022-09-11T10:15:51;23.10;99.90
23681;DHT22;62915;50.832;4.462;2022-09-11T10:18:35;23.20;99.90
23681;DHT22;62915;50.832;4.462;2022-09-11T10:23:56;23.30;99.90
23681;DHT22;62915;50.832;4.462;2022-09-11T10:29:15;22.80;99.90
23681;DHT22;62915;50.832;4.462;2022-09-11T10:31:59;22.70;99.90
23681;DHT22;62915;50.832;4.462;2022-09-11T10:34:36;22.50;99.90
23681;DHT22;62915;50.832;4.462;2022-09-11T10:37:26;22.40;99.90
23681;DHT22;62915;50.832;4.462;2022-09-11T10:40:02;22.30;99.90
23681;DHT22;62915;50.832;4.462;2022-09-11T10:42:30;22.30;99.90
23681;DHT22;62915;50.832;4.462;2022-09-11T10:45:11;22.20;99.90
23681;DHT22;62915;50.832;4.462;2022-09-11T10:47:39;22.50;99.90
23681;DHT22;62915;50.832;4.462;2022-09-11T10:50:20;22.80;99.90
23681;DHT22;62915;50.832;4.462;2022-09-11T10:55:25;23.50;99.90
23681;DHT22;62915;50.832;4.462;2022-09-11T10:57:54;23.50;99.90
23681;DHT22;62915;50.832;4.462;2022-09-11T11:00:28;23.60;99.90
23681;DHT22;62915;50.832;4.462;2022-09-11T11:03:20;23.80;99.90
23681;DHT22;62915;50.832;4.462;2022-09-11T11:26:41;24.20;99.90
23681;DHT22;62915;50.832;4.462;2022-09-11T11:29:36;24.20;99.90
23681;DHT22;62915;50.832;4.462;2022-09-11T11:37:44;24.90;99.90
23681;DHT22;62915;50.832;4.462;2022-09-11T11:40:30;24.80;99.90
23681;DHT22;62915;50.832;4.462;2022-09-11T11:43:04;24.60;99.90
23681;DHT22;62915;50.832;4.462;2022-09-11T11:45:46;24.60;99.90
23681;DHT22;62915;50.832;4.462;2022-09-11T11:48:27;24.90;99.90
23681;DHT22;62915;50.832;4.462;2022-09-11T11:51:05;24.90;99.90
23681;DHT22;62915;50.832;4.462;2022-09-11T11:54:03;25.10;99.90
23681;DHT22;62915;50.832;4.462;2022-09-11T11:56:47;25.30;99.90
23681;DHT22;62915;50.832;4.462;2022-09-11T11:59:16;25.40;99.90
23681;DHT22;62915;50.832;4.462;2022-09-11T12:01:53;25.20;99.90
23681;DHT22;62915;50.832;4.462;2022-09-11T12:06:55;24.30;99.90
23681;DHT22;62915;50.832;4.462;2022-09-11T12:09:21;24.10;99.90
23681;DHT22;62915;50.832;4.462;2022-09-11T12:11:49;23.90;99.90
23681;DHT22;62915;50.832;4.462;2022-09-11T12:14:27;24.00;99.90
23681;DHT22;62915;50.832;4.462;2022-09-11T12:16:57;24.20;99.90
23681;DHT22;62915;50.832;4.462;2022-09-11T12:22:48;24.90;99.90
23681;DHT22;62915;50.832;4.462;2022-09-11T12:28:28;24.40;99.90
23681;DHT22;62915;50.832;4.462;2022-09-11T12:36:34;23.60;99.90
23681;DHT22;62915;50.832;4.462;2022-09-11T12:39:24;23.60;99.90
23681;DHT22;62915;50.832;4.462;2022-09-11T12:41:50;23.60;99.90
23681;DHT22;62915;50.832;4.462;2022-09-11T12:44:29;23.50;99.90
23681;DHT22;62915;50.832;4.462;2022-09-11T12:49:23;23.40;99.90
23681;DHT22;62915;50.832;4.462;2022-09-11T12:51:52;23.50;99.90
23681;DHT22;62915;50.832;4.462;2022-09-11T12:54:28;23.70;99.90
23681;DHT22;62915;50.832;4.462;2022-09-11T12:57:05;23.80;99.90
23681;DHT22;62915;50.832;4.462;2022-09-11T12:59:37;24.20;99.90
23681;DHT22;62915;50.832;4.462;2022-09-11T13:02:19;24.50;99.90
23681;DHT22;62915;50.832;4.462;2022-09-11T13:04:47;24.90;99.90
23681;DHT22;62915;50.832;4.462;2022-09-11T13:07:25;25.10;99.90
23681;DHT22;62915;50.832;4.462;2022-09-11T13:09:54;25.30;99.90
23681;DHT22;62915;50.832;4.462;2022-09-11T13:14:54;25.20;99.90
23681;DHT22;62915;50.832;4.462;2022-09-11T13:17:27;25.20;99.90
23681;DHT22;62915;50.832;4.462;2022-09-11T13:22:29;25.40;99.90
23681;DHT22;62915;50.832;4.462;2022-09-11T13:25:20;25.50;99.90
23681;DHT22;62915;50.832;4.462;2022-09-11T13:27:58;25.70;99.90
23681;DHT22;62915;50.832;4.462;2022-09-11T13:30:25;25.80;99.90
23681;DHT22;62915;50.832;4.462;2022-09-11T13:33:10;25.90;99.90
23681;DHT22;62915;50.832;4.462;2022-09-11T13:35:43;26.00;99.90
23681;DHT22;62915;50.832;4.462;2022-09-11T13:38:21;26.10;99.90
23681;DHT22;62915;50.832;4.462;2022-09-11T13:40:53;26.30;99.90
23681;DHT22;62915;50.832;4.462;2022-09-11T13:43:35;26.30;99.90
23681;DHT22;62915;50.832;4.462;2022-09-11T13:46:29;26.30;99.90
23681;DHT22;62915;50.832;4.462;2022-09-11T13:49:42;26.30;99.90
23681;DHT22;62915;50.832;4.462;2022-09-11T13:51:46;26.20;99.90
23681;DHT22;62915;50.832;4.462;2022-09-11T13:54:34;26.30;99.90
23681;DHT22;62915;50.832;4.462;2022-09-11T14:05:16;26.60;99.90
23681;DHT22;62915;50.832;4.462;2022-09-11T14:18:38;26.50;99.90
23681;DHT22;62915;50.832;4.462;2022-09-11T14:21:30;26.40;99.90
23681;DHT22;62915;50.832;4.462;2022-09-11T14:23:58;26.40;99.90
23681;DHT22;62915;50.832;4.462;2022-09-11T14:26:38;26.30;99.90
23681;DHT22;62915;50.832;4.462;2022-09-11T14:31:39;26.00;99.90
23681;DHT22;62915;50.832;4.462;2022-09-11T14:36:49;25.90;99.90
23681;DHT22;62915;50.832;4.462;2022-09-11T14:39:40;25.90;99.90
23681;DHT22;62915;50.832;4.462;2022-09-11T14:42:19;25.90;99.90
23681;DHT22;62915;50.832;4.462;2022-09-11T14:44:46;25.80;99.90
23681;DHT22;62915;50.832;4.462;2022-09-11T14:47:17;25.60;99.90
23681;DHT22;62915;50.832;4.462;2022-09-11T14:49:44;25.30;99.90
23681;DHT22;62915;50.832;4.462;2022-09-11T14:52:22;25.20;99.90
23681;DHT22;62915;50.832;4.462;2022-09-11T14:54:48;25.20;99.90
23681;DHT22;62915;50.832;4.462;2022-09-11T14:57:16;25.30;99.90
23681;DHT22;62915;50.832;4.462;2022-09-11T14:59:42;25.40;99.90
23681;DHT22;62915;50.832;4.462;2022-09-11T15:02:12;25.50;99.90
23681;DHT22;62915;50.832;4.462;2022-09-11T15:04:38;25.50;99.90
23681;DHT22;62915;50.832;4.462;2022-09-11T15:07:05;25.50;99.90
23681;DHT22;62915;50.832;4.462;2022-09-11T15:09:33;25.50;99.90
23681;DHT22;62915;50.832;4.462;2022-09-11T15:11:59;25.30;99.90
23681;DHT22;62915;50.832;4.462;2022-09-11T15:14:25;25.20;99.90
23681;DHT22;62915;50.832;4.462;2022-09-11T15:16:51;25.20;99.90
23681;DHT22;62915;50.832;4.462;2022-09-11T15:19:22;25.30;99.90
23681;DHT22;62915;50.832;4.462;2022-09-11T15:21:47;25.20;99.90
23681;DHT22;62915;50.832;4.462;2022-09-11T15:24:13;25.20;99.90
23681;DHT22;62915;50.832;4.462;2022-09-11T15:26:39;25.10;99.90
23681;DHT22;62915;50.832;4.462;2022-09-11T15:29:05;25.00;99.90
23681;DHT22;62915;50.832;4.462;2022-09-11T15:31:36;25.00;99.90
23681;DHT22;62915;50.832;4.462;2022-09-11T15:34:02;25.10;99.90
23681;DHT22;62915;50.832;4.462;2022-09-11T15:36:31;25.00;99.90
23681;DHT22;62915;50.832;4.462;2022-09-11T15:38:56;25.00;99.90
23681;DHT22;62915;50.832;4.462;2022-09-11T15:41:23;25.00;99.90
23681;DHT22;62915;50.832;4.462;2022-09-11T15:43:50;25.00;99.90
23681;DHT22;62915;50.832;4.462;2022-09-11T15:46:18;25.00;99.90
23681;DHT22;62915;50.832;4.462;2022-09-11T15:48:44;24.90;99.90
23681;DHT22;62915;50.832;4.462;2022-09-11T15:51:19;24.70;99.90
23681;DHT22;62915;50.832;4.462;2022-09-11T15:53:45;24.80;99.90
23681;DHT22;62915;50.832;4.462;2022-09-11T15:56:13;24.70;99.90
23681;DHT22;62915;50.832;4.462;2022-09-11T15:58:43;24.70;99.90
23681;DHT22;62915;50.832;4.462;2022-09-11T16:01:22;24.70;99.90
23681;DHT22;62915;50.832;4.462;2022-09-11T16:03:56;24.60;99.90
23681;DHT22;62915;50.832;4.462;2022-09-11T16:06:23;24.50;99.90
23681;DHT22;62915;50.832;4.462;2022-09-11T16:08:50;24.50;99.90
23681;DHT22;62915;50.832;4.462;2022-09-11T16:11:17;24.50;99.90
23681;DHT22;62915;50.832;4.462;2022-09-11T16:13:46;24.50;99.90
23681;DHT22;62915;50.832;4.462;2022-09-11T16:16:14;24.50;99.90
23681;DHT22;62915;50.832;4.462;2022-09-11T16:18:40;24.50;99.90
23681;DHT22;62915;50.832;4.462;2022-09-11T16:21:08;24.50;99.90
23681;DHT22;62915;50.832;4.462;2022-09-11T16:23:35;24.30;99.90
23681;DHT22;62915;50.832;4.462;2022-09-11T16:26:08;24.20;99.90
23681;DHT22;62915;50.832;4.462;2022-09-11T16:28:37;24.00;99.90
23681;DHT22;62915;50.832;4.462;2022-09-11T16:31:04;24.00;99.90
23681;DHT22;62915;50.832;4.462;2022-09-11T16:33:31;24.00;99.90
23681;DHT22;62915;50.832;4.462;2022-09-11T16:36:04;24.00;99.90
23681;DHT22;62915;50.832;4.462;2022-09-11T16:38:31;24.00;99.90
23681;DHT22;62915;50.832;4.462;2022-09-11T16:41:18;24.00;99.90
23681;DHT22;62915;50.832;4.462;2022-09-11T16:43:46;24.00;99.90
23681;DHT22;62915;50.832;4.462;2022-09-11T16:46:15;23.90;99.90
23681;DHT22;62915;50.832;4.462;2022-09-11T16:48:42;24.00;99.90
23681;DHT22;62915;50.832;4.462;2022-09-11T16:51:09;23.90;99.90
23681;DHT22;62915;50.832;4.462;2022-09-11T16:53:35;23.80;99.90
23681;DHT22;62915;50.832;4.462;2022-09-11T16:56:08;23.70;99.90
23681;DHT22;62915;50.832;4.462;2022-09-11T16:58:36;23.70;99.90
23681;DHT22;62915;50.832;4.462;2022-09-11T17:01:13;23.60;99.90
23681;DHT22;62915;50.832;4.462;2022-09-11T17:03:39;23.60;99.90
23681;DHT22;62915;50.832;4.462;2022-09-11T17:06:06;23.50;99.90
23681;DHT22;62915;50.832;4.462;2022-09-11T17:08:32;23.50;99.90
23681;DHT22;62915;50.832;4.462;2022-09-11T17:11:00;23.50;99.90
23681;DHT22;62915;50.832;4.462;2022-09-11T17:13:30;23.50;99.90
23681;DHT22;62915;50.832;4.462;2022-09-11T17:16:07;23.50;99.90
23681;DHT22;62915;50.832;4.462;2022-09-11T17:18:33;23.60;99.90
23681;DHT22;62915;50.832;4.462;2022-09-11T17:21:04;23.50;99.90
23681;DHT22;62915;50.832;4.462;2022-09-11T17:23:32;23.40;99.90
23681;DHT22;62915;50.832;4.462;2022-09-11T17:25:57;23.40;99.90
23681;DHT22;62915;50.832;4.462;2022-09-11T17:28:24;23.30;99.90
23681;DHT22;62915;50.832;4.462;2022-09-11T17:30:50;23.20;99.90
23681;DHT22;62915;50.832;4.462;2022-09-11T17:33:16;23.20;99.90
23681;DHT22;62915;50.832;4.462;2022-09-11T17:35:42;23.20;99.90
23681;DHT22;62915;50.832;4.462;2022-09-11T17:38:09;23.20;99.90
23681;DHT22;62915;50.832;4.462;2022-09-11T17:40:35;23.10;99.90
23681;DHT22;62915;50.832;4.462;2022-09-11T17:43:01;23.00;99.90
23681;DHT22;62915;50.832;4.462;2022-09-11T17:45:29;23.00;99.90
23681;DHT22;62915;50.832;4.462;2022-09-11T17:47:55;22.90;99.90
23681;DHT22;62915;50.832;4.462;2022-09-11T17:50:22;22.80;99.90
23681;DHT22;62915;50.832;4.462;2022-09-11T17:52:48;22.80;99.90
23681;DHT22;62915;50.832;4.462;2022-09-11T17:55:15;22.70;99.90
23681;DHT22;62915;50.832;4.462;2022-09-11T17:57:50;22.70;99.90
23681;DHT22;62915;50.832;4.462;2022-09-11T18:00:16;22.60;99.90
23681;DHT22;62915;50.832;4.462;2022-09-11T18:02:43;22.50;99.90
23681;DHT22;62915;50.832;4.462;2022-09-11T18:05:10;22.50;99.90
23681;DHT22;62915;50.832;4.462;2022-09-11T18:07:36;22.40;99.90
23681;DHT22;62915;50.832;4.462;2022-09-11T18:10:03;22.40;99.90
23681;DHT22;62915;50.832;4.462;2022-09-11T18:12:29;22.30;99.90